sensor_id;sensor_type;location;lat;lon;timestamp;P1;durP1;ratioP1;P2;durP2;ratioP2
69912;SDS011;57198;52.082;5.108;2022-07-25T00:01:09;4.00;;;3.67;;
69912;SDS011;57198;52.082;5.108;2022-07-25T00:03:37;4.97;;;3.90;;
69912;SDS011;57198;52.082;5.108;2022-07-25T00:06:05;4.40;;;3.90;;
69912;SDS011;57198;52.082;5.108;2022-07-25T00:08:38;6.30;;;3.90;;
69912;SDS011;57198;52.082;5.108;2022-07-25T00:11:06;4.97;;;3.55;;
69912;SDS011;57198;52.082;5.108;2022-07-25T00:13:33;5.88;;;4.05;;
69912;SDS011;57198;52.082;5.108;2022-07-25T00:16:00;6.23;;;4.13;;
69912;SDS011;57198;52.082;5.108;2022-07-25T00:18:28;6.28;;;4.15;;
69912;SDS011;57198;52.082;5.108;2022-07-25T00:20:55;5.03;;;4.57;;
69912;SDS011;57198;52.082;5.108;2022-07-25T00:23:22;7.15;;;4.35;;
69912;SDS011;57198;52.082;5.108;2022-07-25T00:25:50;4.72;;;4.32;;
69912;SDS011;57198;52.082;5.108;2022-07-25T00:28:17;4.50;;;4.00;;
69912;SDS011;57198;52.082;5.108;2022-07-25T00:30:45;5.13;;;4.38;;
69912;SDS011;57198;52.082;5.108;2022-07-25T00:33:13;6.10;;;4.53;;
69912;SDS011;57198;52.082;5.108;2022-07-25T00:35:40;4.50;;;4.10;;
69912;SDS011;57198;52.082;5.108;2022-07-25T00:38:07;7.60;;;4.40;;
69912;SDS011;57198;52.082;5.108;2022-07-25T00:40:35;4.63;;;3.87;;
69912;SDS011;57198;52.082;5.108;2022-07-25T00:43:02;7.57;;;4.40;;
69912;SDS011;57198;52.082;5.108;2022-07-25T00:45:30;7.32;;;4.20;;
69912;SDS011;57198;52.082;5.108;2022-07-25T00:47:57;4.93;;;4.25;;
69912;SDS011;57198;52.082;5.108;2022-07-25T00:50:25;5.63;;;4.35;;
69912;SDS011;57198;52.082;5.108;2022-07-25T00:52:52;4.90;;;4.13;;
69912;SDS011;57198;52.082;5.108;2022-07-25T00:55:20;5.10;;;4.30;;
69912;SDS011;57198;52.082;5.108;2022-07-25T00:57:47;7.65;;;4.32;;
69912;SDS011;57198;52.082;5.108;2022-07-25T01:00:15;5.55;;;4.55;;
69912;SDS011;57198;52.082;5.108;2022-07-25T01:02:43;4.80;;;4.35;;
69912;SDS011;57198;52.082;5.108;2022-07-25T01:05:11;4.80;;;3.90;;
69912;SDS011;57198;52.082;5.108;2022-07-25T01:07:38;4.60;;;4.15;;
69912;SDS011;57198;52.082;5.108;2022-07-25T01:10:06;6.47;;;4.50;;
69912;SDS011;57198;52.082;5.108;2022-07-25T01:12:43;7.30;;;4.50;;
69912;SDS011;57198;52.082;5.108;2022-07-25T01:15:11;5.82;;;4.85;;
69912;SDS011;57198;52.082;5.108;2022-07-25T01:17:38;8.77;;;4.73;;
69912;SDS011;57198;52.082;5.108;2022-07-25T01:20:11;5.93;;;4.38;;
69912;SDS011;57198;52.082;5.108;2022-07-25T01:22:39;5.68;;;5.10;;
69912;SDS011;57198;52.082;5.108;2022-07-25T01:25:06;6.63;;;4.88;;
69912;SDS011;57198;52.082;5.108;2022-07-25T01:27:33;5.47;;;4.85;;
69912;SDS011;57198;52.082;5.108;2022-07-25T01:30:01;5.23;;;4.60;;
69912;SDS011;57198;52.082;5.108;2022-07-25T01:32:29;5.45;;;4.43;;
69912;SDS011;57198;52.082;5.108;2022-07-25T01:34:57;5.80;;;5.10;;
69912;SDS011;57198;52.082;5.108;2022-07-25T01:37:24;7.55;;;5.15;;
69912;SDS011;57198;52.082;5.108;2022-07-25T01:39:51;9.00;;;5.13;;
69912;SDS011;57198;52.082;5.108;2022-07-25T01:42:18;5.43;;;4.90;;
69912;SDS011;57198;52.082;5.108;2022-07-25T01:44:46;5.22;;;4.68;;
69912;SDS011;57198;52.082;5.108;2022-07-25T01:47:13;5.60;;;5.10;;
69912;SDS011;57198;52.082;5.108;2022-07-25T01:49:42;6.72;;;5.22;;
69912;SDS011;57198;52.082;5.108;2022-07-25T01:52:10;5.88;;;5.20;;
69912;SDS011;57198;52.082;5.108;2022-07-25T01:54:38;6.53;;;5.40;;
69912;SDS011;57198;52.082;5.108;2022-07-25T01:57:08;6.22;;;5.20;;
69912;SDS011;57198;52.082;5.108;2022-07-25T01:59:40;6.28;;;5.18;;
69912;SDS011;57198;52.082;5.108;2022-07-25T02:02:08;6.18;;;5.57;;
69912;SDS011;57198;52.082;5.108;2022-07-25T02:04:35;10.45;;;5.00;;
69912;SDS011;57198;52.082;5.108;2022-07-25T02:07:03;7.80;;;5.67;;
69912;SDS011;57198;52.082;5.108;2022-07-25T02:09:31;8.00;;;4.68;;
69912;SDS011;57198;52.082;5.108;2022-07-25T02:11:58;5.32;;;4.82;;
69912;SDS011;57198;52.082;5.108;2022-07-25T02:14:26;6.10;;;5.10;;
69912;SDS011;57198;52.082;5.108;2022-07-25T02:16:53;5.68;;;5.03;;
69912;SDS011;57198;52.082;5.108;2022-07-25T02:19:20;5.20;;;4.57;;
69912;SDS011;57198;52.082;5.108;2022-07-25T02:21:48;6.07;;;5.18;;
69912;SDS011;57198;52.082;5.108;2022-07-25T02:24:15;7.20;;;4.30;;
69912;SDS011;57198;52.082;5.108;2022-07-25T02:26:42;6.65;;;5.50;;
69912;SDS011;57198;52.082;5.108;2022-07-25T02:29:10;6.35;;;4.85;;
69912;SDS011;57198;52.082;5.108;2022-07-25T02:31:37;5.00;;;4.50;;
69912;SDS011;57198;52.082;5.108;2022-07-25T02:34:04;5.22;;;4.82;;
69912;SDS011;57198;52.082;5.108;2022-07-25T02:36:32;5.68;;;5.18;;
69912;SDS011;57198;52.082;5.108;2022-07-25T02:39:00;5.43;;;4.88;;
69912;SDS011;57198;52.082;5.108;2022-07-25T02:41:27;6.32;;;5.28;;
69912;SDS011;57198;52.082;5.108;2022-07-25T02:43:54;5.73;;;5.20;;
69912;SDS011;57198;52.082;5.108;2022-07-25T02:46:22;6.78;;;5.60;;
69912;SDS011;57198;52.082;5.108;2022-07-25T02:48:49;7.00;;;5.30;;
69912;SDS011;57198;52.082;5.108;2022-07-25T02:51:16;7.70;;;5.47;;
69912;SDS011;57198;52.082;5.108;2022-07-25T02:53:44;6.68;;;5.97;;
69912;SDS011;57198;52.082;5.108;2022-07-25T02:56:23;8.70;;;6.10;;
69912;SDS011;57198;52.082;5.108;2022-07-25T02:58:51;6.03;;;5.53;;
69912;SDS011;57198;52.082;5.108;2022-07-25T03:01:18;8.15;;;6.30;;
69912;SDS011;57198;52.082;5.108;2022-07-25T03:03:45;7.68;;;6.40;;
69912;SDS011;57198;52.082;5.108;2022-07-25T03:06:13;7.10;;;5.97;;
69912;SDS011;57198;52.082;5.108;2022-07-25T03:08:40;8.80;;;6.17;;
69912;SDS011;57198;52.082;5.108;2022-07-25T03:11:07;9.63;;;6.65;;
69912;SDS011;57198;52.082;5.108;2022-07-25T03:13:35;6.38;;;5.75;;
69912;SDS011;57198;52.082;5.108;2022-07-25T03:16:02;8.70;;;6.32;;
69912;SDS011;57198;52.082;5.108;2022-07-25T03:18:29;7.18;;;6.47;;
69912;SDS011;57198;52.082;5.108;2022-07-25T03:20:56;8.10;;;6.00;;
69912;SDS011;57198;52.082;5.108;2022-07-25T03:23:24;9.88;;;6.43;;
69912;SDS011;57198;52.082;5.108;2022-07-25T03:25:53;9.02;;;6.88;;
69912;SDS011;57198;52.082;5.108;2022-07-25T03:28:20;9.93;;;6.82;;
69912;SDS011;57198;52.082;5.108;2022-07-25T03:30:48;7.45;;;6.68;;
69912;SDS011;57198;52.082;5.108;2022-07-25T03:33:15;7.50;;;6.77;;
69912;SDS011;57198;52.082;5.108;2022-07-25T03:35:43;8.90;;;7.25;;
69912;SDS011;57198;52.082;5.108;2022-07-25T03:38:10;8.32;;;7.25;;
69912;SDS011;57198;52.082;5.108;2022-07-25T03:40:37;8.50;;;7.65;;
69912;SDS011;57198;52.082;5.108;2022-07-25T03:43:05;8.68;;;7.25;;
69912;SDS011;57198;52.082;5.108;2022-07-25T03:45:32;10.90;;;7.73;;
69912;SDS011;57198;52.082;5.108;2022-07-25T03:47:59;10.48;;;7.47;;
69912;SDS011;57198;52.082;5.108;2022-07-25T03:50:27;7.80;;;6.60;;
69912;SDS011;57198;52.082;5.108;2022-07-25T03:52:54;12.25;;;7.25;;
69912;SDS011;57198;52.082;5.108;2022-07-25T03:55:22;12.63;;;7.30;;
69912;SDS011;57198;52.082;5.108;2022-07-25T03:57:49;8.73;;;7.20;;
69912;SDS011;57198;52.082;5.108;2022-07-25T04:00:16;8.98;;;7.72;;
69912;SDS011;57198;52.082;5.108;2022-07-25T04:02:44;8.20;;;7.40;;
69912;SDS011;57198;52.082;5.108;2022-07-25T04:05:11;9.38;;;7.18;;
69912;SDS011;57198;52.082;5.108;2022-07-25T04:07:38;8.90;;;7.47;;
69912;SDS011;57198;52.082;5.108;2022-07-25T04:10:06;10.00;;;7.33;;
69912;SDS011;57198;52.082;5.108;2022-07-25T04:12:33;9.60;;;7.15;;
69912;SDS011;57198;52.082;5.108;2022-07-25T04:15:01;11.07;;;7.72;;
69912;SDS011;57198;52.082;5.108;2022-07-25T04:17:28;10.02;;;7.43;;
69912;SDS011;57198;52.082;5.108;2022-07-25T04:19:55;8.68;;;7.20;;
69912;SDS011;57198;52.082;5.108;2022-07-25T04:22:23;10.73;;;7.40;;
69912;SDS011;57198;52.082;5.108;2022-07-25T04:24:50;9.88;;;7.50;;
69912;SDS011;57198;52.082;5.108;2022-07-25T04:27:17;9.35;;;7.30;;
69912;SDS011;57198;52.082;5.108;2022-07-25T04:29:44;10.10;;;7.05;;
69912;SDS011;57198;52.082;5.108;2022-07-25T04:32:12;7.68;;;6.68;;
69912;SDS011;57198;52.082;5.108;2022-07-25T04:34:40;9.03;;;6.57;;
69912;SDS011;57198;52.082;5.108;2022-07-25T04:37:08;9.27;;;6.70;;
69912;SDS011;57198;52.082;5.108;2022-07-25T04:39:36;8.32;;;6.22;;
69912;SDS011;57198;52.082;5.108;2022-07-25T04:42:03;13.18;;;6.90;;
69912;SDS011;57198;52.082;5.108;2022-07-25T04:44:31;8.35;;;6.82;;
69912;SDS011;57198;52.082;5.108;2022-07-25T04:46:58;7.47;;;6.73;;
69912;SDS011;57198;52.082;5.108;2022-07-25T04:49:25;10.05;;;7.22;;
69912;SDS011;57198;52.082;5.108;2022-07-25T04:51:52;8.38;;;6.88;;
69912;SDS011;57198;52.082;5.108;2022-07-25T04:54:20;10.02;;;8.23;;
69912;SDS011;57198;52.082;5.108;2022-07-25T04:56:47;10.10;;;8.75;;
69912;SDS011;57198;52.082;5.108;2022-07-25T04:59:15;9.93;;;8.30;;
69912;SDS011;57198;52.082;5.108;2022-07-25T05:01:42;10.45;;;8.55;;
69912;SDS011;57198;52.082;5.108;2022-07-25T05:04:09;13.38;;;8.65;;
69912;SDS011;57198;52.082;5.108;2022-07-25T05:06:37;11.85;;;9.13;;
69912;SDS011;57198;52.082;5.108;2022-07-25T05:09:04;13.65;;;8.85;;
69912;SDS011;57198;52.082;5.108;2022-07-25T05:11:31;11.80;;;9.70;;
69912;SDS011;57198;52.082;5.108;2022-07-25T05:13:58;12.15;;;10.27;;
69912;SDS011;57198;52.082;5.108;2022-07-25T05:16:26;12.90;;;10.43;;
69912;SDS011;57198;52.082;5.108;2022-07-25T05:18:53;16.13;;;9.95;;
69912;SDS011;57198;52.082;5.108;2022-07-25T05:21:22;12.23;;;9.88;;
69912;SDS011;57198;52.082;5.108;2022-07-25T05:23:49;13.23;;;10.13;;
69912;SDS011;57198;52.082;5.108;2022-07-25T05:26:16;12.00;;;10.23;;
69912;SDS011;57198;52.082;5.108;2022-07-25T05:28:44;12.90;;;10.25;;
69912;SDS011;57198;52.082;5.108;2022-07-25T05:31:11;12.38;;;10.90;;
69912;SDS011;57198;52.082;5.108;2022-07-25T05:33:38;19.58;;;11.77;;
69912;SDS011;57198;52.082;5.108;2022-07-25T05:36:05;16.87;;;11.17;;
69912;SDS011;57198;52.082;5.108;2022-07-25T05:38:34;12.95;;;11.02;;
69912;SDS011;57198;52.082;5.108;2022-07-25T05:41:01;13.93;;;11.30;;
69912;SDS011;57198;52.082;5.108;2022-07-25T05:43:28;12.68;;;10.65;;
69912;SDS011;57198;52.082;5.108;2022-07-25T05:46:02;13.25;;;11.10;;
69912;SDS011;57198;52.082;5.108;2022-07-25T05:48:30;13.77;;;10.80;;
69912;SDS011;57198;52.082;5.108;2022-07-25T05:50:58;14.13;;;10.65;;
69912;SDS011;57198;52.082;5.108;2022-07-25T05:53:25;13.55;;;10.15;;
69912;SDS011;57198;52.082;5.108;2022-07-25T05:55:53;22.17;;;10.80;;
69912;SDS011;57198;52.082;5.108;2022-07-25T05:58:20;15.18;;;10.60;;
69912;SDS011;57198;52.082;5.108;2022-07-25T06:00:54;15.83;;;10.73;;
69912;SDS011;57198;52.082;5.108;2022-07-25T06:03:22;15.65;;;10.70;;
69912;SDS011;57198;52.082;5.108;2022-07-25T06:05:49;13.52;;;9.55;;
69912;SDS011;57198;52.082;5.108;2022-07-25T06:08:16;10.35;;;8.43;;
69912;SDS011;57198;52.082;5.108;2022-07-25T06:10:44;10.63;;;7.90;;
69912;SDS011;57198;52.082;5.108;2022-07-25T06:13:11;15.43;;;7.63;;
69912;SDS011;57198;52.082;5.108;2022-07-25T06:15:39;13.05;;;6.97;;
69912;SDS011;57198;52.082;5.108;2022-07-25T06:18:06;7.40;;;5.45;;
69912;SDS011;57198;52.082;5.108;2022-07-25T06:20:34;9.23;;;5.40;;
69912;SDS011;57198;52.082;5.108;2022-07-25T06:23:01;7.60;;;5.78;;
69912;SDS011;57198;52.082;5.108;2022-07-25T06:25:30;6.27;;;4.60;;
69912;SDS011;57198;52.082;5.108;2022-07-25T06:27:57;6.38;;;4.95;;
69912;SDS011;57198;52.082;5.108;2022-07-25T06:30:26;5.03;;;4.10;;
69912;SDS011;57198;52.082;5.108;2022-07-25T06:32:53;5.75;;;3.67;;
69912;SDS011;57198;52.082;5.108;2022-07-25T06:35:21;7.45;;;3.10;;
69912;SDS011;57198;52.082;5.108;2022-07-25T06:37:48;4.03;;;3.33;;
69912;SDS011;57198;52.082;5.108;2022-07-25T06:40:16;5.07;;;2.70;;
69912;SDS011;57198;52.082;5.108;2022-07-25T06:42:44;4.18;;;2.42;;
69912;SDS011;57198;52.082;5.108;2022-07-25T06:45:12;2.60;;;2.40;;
69912;SDS011;57198;52.082;5.108;2022-07-25T06:47:40;3.13;;;2.42;;
69912;SDS011;57198;52.082;5.108;2022-07-25T06:50:08;4.50;;;2.47;;
69912;SDS011;57198;52.082;5.108;2022-07-25T06:52:37;3.22;;;2.33;;
69912;SDS011;57198;52.082;5.108;2022-07-25T06:55:04;3.25;;;2.15;;
69912;SDS011;57198;52.082;5.108;2022-07-25T06:57:32;4.65;;;1.75;;
69912;SDS011;57198;52.082;5.108;2022-07-25T06:59:59;2.63;;;1.80;;
69912;SDS011;57198;52.082;5.108;2022-07-25T07:02:26;5.00;;;1.97;;
69912;SDS011;57198;52.082;5.108;2022-07-25T07:04:54;2.47;;;1.63;;
69912;SDS011;57198;52.082;5.108;2022-07-25T07:07:21;4.70;;;1.50;;
69912;SDS011;57198;52.082;5.108;2022-07-25T07:09:48;3.13;;;1.60;;
69912;SDS011;57198;52.082;5.108;2022-07-25T07:12:16;6.85;;;1.83;;
69912;SDS011;57198;52.082;5.108;2022-07-25T07:14:43;3.23;;;1.80;;
69912;SDS011;57198;52.082;5.108;2022-07-25T07:17:10;8.48;;;1.52;;
69912;SDS011;57198;52.082;5.108;2022-07-25T07:19:38;6.43;;;1.80;;
69912;SDS011;57198;52.082;5.108;2022-07-25T07:22:09;3.75;;;1.48;;
69912;SDS011;57198;52.082;5.108;2022-07-25T07:24:38;3.00;;;1.52;;
69912;SDS011;57198;52.082;5.108;2022-07-25T07:27:10;3.50;;;1.30;;
69912;SDS011;57198;52.082;5.108;2022-07-25T07:29:38;2.22;;;1.60;;
69912;SDS011;57198;52.082;5.108;2022-07-25T07:32:05;6.68;;;1.75;;
69912;SDS011;57198;52.082;5.108;2022-07-25T07:34:32;2.38;;;1.63;;
69912;SDS011;57198;52.082;5.108;2022-07-25T07:37:00;6.30;;;1.60;;
69912;SDS011;57198;52.082;5.108;2022-07-25T07:39:27;3.30;;;1.60;;
69912;SDS011;57198;52.082;5.108;2022-07-25T07:41:55;4.38;;;1.83;;
69912;SDS011;57198;52.082;5.108;2022-07-25T07:44:22;4.28;;;1.70;;
69912;SDS011;57198;52.082;5.108;2022-07-25T07:46:49;5.72;;;1.60;;
69912;SDS011;57198;52.082;5.108;2022-07-25T07:49:17;4.70;;;1.35;;
69912;SDS011;57198;52.082;5.108;2022-07-25T07:51:44;2.93;;;1.27;;
69912;SDS011;57198;52.082;5.108;2022-07-25T07:54:11;5.43;;;1.27;;
69912;SDS011;57198;52.082;5.108;2022-07-25T07:56:58;2.35;;;1.00;;
69912;SDS011;57198;52.082;5.108;2022-07-25T07:59:25;5.88;;;1.67;;
69912;SDS011;57198;52.082;5.108;2022-07-25T08:01:52;3.15;;;0.98;;
69912;SDS011;57198;52.082;5.108;2022-07-25T08:04:19;2.57;;;1.30;;
69912;SDS011;57198;52.082;5.108;2022-07-25T08:06:47;4.28;;;1.50;;
69912;SDS011;57198;52.082;5.108;2022-07-25T08:09:14;5.10;;;1.55;;
69912;SDS011;57198;52.082;5.108;2022-07-25T08:11:41;3.30;;;1.30;;
69912;SDS011;57198;52.082;5.108;2022-07-25T08:14:09;5.28;;;1.70;;
69912;SDS011;57198;52.082;5.108;2022-07-25T08:16:36;5.30;;;1.37;;
69912;SDS011;57198;52.082;5.108;2022-07-25T08:19:04;3.13;;;1.13;;
69912;SDS011;57198;52.082;5.108;2022-07-25T08:21:31;4.75;;;1.30;;
69912;SDS011;57198;52.082;5.108;2022-07-25T08:23:58;6.30;;;1.40;;
69912;SDS011;57198;52.082;5.108;2022-07-25T08:26:26;6.07;;;1.50;;
69912;SDS011;57198;52.082;5.108;2022-07-25T08:28:53;7.63;;;1.80;;
69912;SDS011;57198;52.082;5.108;2022-07-25T08:31:41;3.83;;;1.83;;
69912;SDS011;57198;52.082;5.108;2022-07-25T08:34:08;3.80;;;1.60;;
69912;SDS011;57198;52.082;5.108;2022-07-25T08:36:36;7.50;;;1.70;;
69912;SDS011;57198;52.082;5.108;2022-07-25T08:39:06;5.78;;;1.40;;
69912;SDS011;57198;52.082;5.108;2022-07-25T08:41:33;3.97;;;1.57;;
69912;SDS011;57198;52.082;5.108;2022-07-25T08:44:01;4.00;;;1.15;;
69912;SDS011;57198;52.082;5.108;2022-07-25T08:46:29;6.32;;;1.52;;
69912;SDS011;57198;52.082;5.108;2022-07-25T08:48:57;6.95;;;1.98;;
69912;SDS011;57198;52.082;5.108;2022-07-25T08:51:25;3.58;;;1.40;;
69912;SDS011;57198;52.082;5.108;2022-07-25T08:53:53;5.50;;;1.60;;
69912;SDS011;57198;52.082;5.108;2022-07-25T08:56:20;5.22;;;1.50;;
69912;SDS011;57198;52.082;5.108;2022-07-25T08:58:48;6.20;;;1.80;;
69912;SDS011;57198;52.082;5.108;2022-07-25T09:01:16;7.50;;;1.65;;
69912;SDS011;57198;52.082;5.108;2022-07-25T09:03:45;4.80;;;1.40;;
69912;SDS011;57198;52.082;5.108;2022-07-25T09:06:19;6.80;;;1.70;;
69912;SDS011;57198;52.082;5.108;2022-07-25T09:08:54;4.50;;;1.17;;
69912;SDS011;57198;52.082;5.108;2022-07-25T09:11:29;6.97;;;1.70;;
69912;SDS011;57198;52.082;5.108;2022-07-25T09:13:57;6.60;;;1.50;;
69912;SDS011;57198;52.082;5.108;2022-07-25T09:16:28;5.18;;;1.88;;
69912;SDS011;57198;52.082;5.108;2022-07-25T09:19:09;5.33;;;1.60;;
69912;SDS011;57198;52.082;5.108;2022-07-25T09:21:37;7.00;;;1.73;;
69912;SDS011;57198;52.082;5.108;2022-07-25T09:26:46;3.97;;;1.48;;
69912;SDS011;57198;52.082;5.108;2022-07-25T09:29:14;2.97;;;1.50;;
69912;SDS011;57198;52.082;5.108;2022-07-25T09:31:42;6.13;;;1.57;;
69912;SDS011;57198;52.082;5.108;2022-07-25T09:34:09;5.30;;;1.85;;
69912;SDS011;57198;52.082;5.108;2022-07-25T09:36:53;3.80;;;1.50;;
69912;SDS011;57198;52.082;5.108;2022-07-25T09:39:30;4.30;;;1.48;;
69912;SDS011;57198;52.082;5.108;2022-07-25T09:41:58;5.28;;;1.40;;
69912;SDS011;57198;52.082;5.108;2022-07-25T09:44:25;4.87;;;1.40;;
69912;SDS011;57198;52.082;5.108;2022-07-25T09:46:56;4.70;;;1.60;;
69912;SDS011;57198;52.082;5.108;2022-07-25T09:49:40;8.23;;;1.67;;
69912;SDS011;57198;52.082;5.108;2022-07-25T09:52:08;4.22;;;1.73;;
69912;SDS011;57198;52.082;5.108;2022-07-25T09:54:36;4.93;;;1.95;;
69912;SDS011;57198;52.082;5.108;2022-07-25T09:57:03;3.70;;;1.50;;
69912;SDS011;57198;52.082;5.108;2022-07-25T09:59:34;7.18;;;1.70;;
69912;SDS011;57198;52.082;5.108;2022-07-25T10:02:07;5.05;;;1.70;;
69912;SDS011;57198;52.082;5.108;2022-07-25T10:05:23;5.97;;;1.67;;
69912;SDS011;57198;52.082;5.108;2022-07-25T10:07:23;6.40;;;1.50;;
69912;SDS011;57198;52.082;5.108;2022-07-25T10:09:56;5.67;;;1.47;;
69912;SDS011;57198;52.082;5.108;2022-07-25T10:12:25;4.57;;;1.60;;
69912;SDS011;57198;52.082;5.108;2022-07-25T10:15:09;3.28;;;1.30;;
69912;SDS011;57198;52.082;5.108;2022-07-25T10:17:37;4.82;;;1.60;;
69912;SDS011;57198;52.082;5.108;2022-07-25T10:20:05;5.47;;;1.50;;
69912;SDS011;57198;52.082;5.108;2022-07-25T10:25:21;5.30;;;1.40;;
69912;SDS011;57198;52.082;5.108;2022-07-25T10:27:49;4.68;;;1.30;;
69912;SDS011;57198;52.082;5.108;2022-07-25T10:30:22;2.38;;;1.42;;
69912;SDS011;57198;52.082;5.108;2022-07-25T10:32:56;5.30;;;1.70;;
69912;SDS011;57198;52.082;5.108;2022-07-25T10:35:27;7.43;;;1.83;;
69912;SDS011;57198;52.082;5.108;2022-07-25T10:37:55;3.85;;;1.80;;
69912;SDS011;57198;52.082;5.108;2022-07-25T10:40:27;5.45;;;1.50;;
69912;SDS011;57198;52.082;5.108;2022-07-25T10:42:56;6.10;;;1.77;;
69912;SDS011;57198;52.082;5.108;2022-07-25T10:45:24;7.93;;;1.95;;
69912;SDS011;57198;52.082;5.108;2022-07-25T10:47:53;4.13;;;1.50;;
69912;SDS011;57198;52.082;5.108;2022-07-25T10:50:21;4.05;;;1.95;;
69912;SDS011;57198;52.082;5.108;2022-07-25T10:53:08;5.80;;;1.88;;
69912;SDS011;57198;52.082;5.108;2022-07-25T10:55:36;9.43;;;2.10;;
69912;SDS011;57198;52.082;5.108;2022-07-25T10:58:03;8.05;;;2.30;;
69912;SDS011;57198;52.082;5.108;2022-07-25T11:00:43;7.53;;;2.00;;
69912;SDS011;57198;52.082;5.108;2022-07-25T11:03:11;5.28;;;1.90;;
69912;SDS011;57198;52.082;5.108;2022-07-25T11:05:44;5.53;;;2.15;;
69912;SDS011;57198;52.082;5.108;2022-07-25T11:08:12;10.27;;;2.58;;
69912;SDS011;57198;52.082;5.108;2022-07-25T11:10:51;7.45;;;2.17;;
69912;SDS011;57198;52.082;5.108;2022-07-25T11:13:21;12.60;;;2.17;;
69912;SDS011;57198;52.082;5.108;2022-07-25T11:15:48;9.07;;;2.17;;
69912;SDS011;57198;52.082;5.108;2022-07-25T11:18:16;8.02;;;2.17;;
69912;SDS011;57198;52.082;5.108;2022-07-25T11:20:43;11.80;;;2.25;;
69912;SDS011;57198;52.082;5.108;2022-07-25T11:23:11;8.57;;;2.80;;
69912;SDS011;57198;52.082;5.108;2022-07-25T11:25:38;6.63;;;2.10;;
69912;SDS011;57198;52.082;5.108;2022-07-25T11:28:07;5.65;;;2.35;;
69912;SDS011;57198;52.082;5.108;2022-07-25T11:30:34;7.68;;;2.40;;
69912;SDS011;57198;52.082;5.108;2022-07-25T11:33:03;8.18;;;2.33;;
69912;SDS011;57198;52.082;5.108;2022-07-25T11:35:31;8.85;;;2.35;;
69912;SDS011;57198;52.082;5.108;2022-07-25T11:37:59;7.33;;;1.73;;
69912;SDS011;57198;52.082;5.108;2022-07-25T11:40:28;6.60;;;2.05;;
69912;SDS011;57198;52.082;5.108;2022-07-25T11:42:58;7.60;;;1.98;;
69912;SDS011;57198;52.082;5.108;2022-07-25T11:45:29;10.02;;;2.65;;
69912;SDS011;57198;52.082;5.108;2022-07-25T11:48:12;8.20;;;2.30;;
69912;SDS011;57198;52.082;5.108;2022-07-25T11:50:40;9.20;;;2.07;;
69912;SDS011;57198;52.082;5.108;2022-07-25T11:53:09;2.80;;;1.95;;
69912;SDS011;57198;52.082;5.108;2022-07-25T11:55:37;7.78;;;1.63;;
69912;SDS011;57198;52.082;5.108;2022-07-25T11:58:09;5.38;;;1.88;;
69912;SDS011;57198;52.082;5.108;2022-07-25T12:00:41;6.60;;;2.30;;
69912;SDS011;57198;52.082;5.108;2022-07-25T12:03:12;4.87;;;2.23;;
69912;SDS011;57198;52.082;5.108;2022-07-25T12:05:45;10.27;;;2.08;;
69912;SDS011;57198;52.082;5.108;2022-07-25T12:08:16;7.22;;;2.03;;
69912;SDS011;57198;52.082;5.108;2022-07-25T12:10:44;7.90;;;2.13;;
69912;SDS011;57198;52.082;5.108;2022-07-25T12:13:20;6.70;;;2.45;;
69912;SDS011;57198;52.082;5.108;2022-07-25T12:15:48;7.37;;;1.70;;
69912;SDS011;57198;52.082;5.108;2022-07-25T12:18:15;7.78;;;1.75;;
69912;SDS011;57198;52.082;5.108;2022-07-25T12:20:43;9.40;;;1.52;;
69912;SDS011;57198;52.082;5.108;2022-07-25T12:23:11;13.10;;;2.38;;
69912;SDS011;57198;52.082;5.108;2022-07-25T12:25:39;4.38;;;1.80;;
69912;SDS011;57198;52.082;5.108;2022-07-25T12:28:07;4.83;;;1.90;;
69912;SDS011;57198;52.082;5.108;2022-07-25T12:30:36;4.38;;;1.52;;
69912;SDS011;57198;52.082;5.108;2022-07-25T12:33:04;7.43;;;1.92;;
69912;SDS011;57198;52.082;5.108;2022-07-25T12:35:32;6.05;;;1.58;;
69912;SDS011;57198;52.082;5.108;2022-07-25T12:37:59;3.83;;;1.67;;
69912;SDS011;57198;52.082;5.108;2022-07-25T12:40:27;10.77;;;1.77;;
69912;SDS011;57198;52.082;5.108;2022-07-25T12:42:54;7.70;;;2.13;;
69912;SDS011;57198;52.082;5.108;2022-07-25T12:45:23;5.05;;;2.10;;
69912;SDS011;57198;52.082;5.108;2022-07-25T12:47:50;7.25;;;1.75;;
69912;SDS011;57198;52.082;5.108;2022-07-25T12:50:17;5.55;;;1.45;;
69912;SDS011;57198;52.082;5.108;2022-07-25T12:52:45;6.30;;;1.40;;
69912;SDS011;57198;52.082;5.108;2022-07-25T12:55:13;4.95;;;1.30;;
69912;SDS011;57198;52.082;5.108;2022-07-25T12:57:41;5.43;;;1.50;;
69912;SDS011;57198;52.082;5.108;2022-07-25T13:00:10;5.60;;;1.40;;
69912;SDS011;57198;52.082;5.108;2022-07-25T13:02:38;4.50;;;1.60;;
69912;SDS011;57198;52.082;5.108;2022-07-25T13:05:05;3.97;;;1.87;;
69912;SDS011;57198;52.082;5.108;2022-07-25T13:07:33;6.20;;;2.15;;
69912;SDS011;57198;52.082;5.108;2022-07-25T13:10:01;7.28;;;2.10;;
69912;SDS011;57198;52.082;5.108;2022-07-25T13:12:29;7.93;;;2.03;;
69912;SDS011;57198;52.082;5.108;2022-07-25T13:14:56;12.13;;;2.08;;
69912;SDS011;57198;52.082;5.108;2022-07-25T13:17:23;9.70;;;1.77;;
69912;SDS011;57198;52.082;5.108;2022-07-25T13:19:54;6.60;;;1.80;;
69912;SDS011;57198;52.082;5.108;2022-07-25T13:22:21;8.98;;;1.92;;
69912;SDS011;57198;52.082;5.108;2022-07-25T13:24:49;8.85;;;1.52;;
69912;SDS011;57198;52.082;5.108;2022-07-25T13:27:18;10.13;;;1.33;;
69912;SDS011;57198;52.082;5.108;2022-07-25T13:29:45;10.43;;;1.40;;
69912;SDS011;57198;52.082;5.108;2022-07-25T13:32:16;6.25;;;1.70;;
69912;SDS011;57198;52.082;5.108;2022-07-25T13:34:44;5.20;;;1.67;;
69912;SDS011;57198;52.082;5.108;2022-07-25T13:37:11;5.10;;;1.40;;
69912;SDS011;57198;52.082;5.108;2022-07-25T13:39:39;7.78;;;1.70;;
69912;SDS011;57198;52.082;5.108;2022-07-25T13:42:07;6.03;;;1.10;;
69912;SDS011;57198;52.082;5.108;2022-07-25T13:44:35;9.93;;;1.40;;
69912;SDS011;57198;52.082;5.108;2022-07-25T13:47:02;8.40;;;1.48;;
69912;SDS011;57198;52.082;5.108;2022-07-25T13:49:30;6.65;;;1.27;;
69912;SDS011;57198;52.082;5.108;2022-07-25T13:51:57;3.50;;;0.98;;
69912;SDS011;57198;52.082;5.108;2022-07-25T13:54:25;7.67;;;1.10;;
69912;SDS011;57198;52.082;5.108;2022-07-25T13:56:52;7.43;;;1.23;;
69912;SDS011;57198;52.082;5.108;2022-07-25T13:59:19;7.00;;;1.10;;
69912;SDS011;57198;52.082;5.108;2022-07-25T14:01:47;6.43;;;1.10;;
69912;SDS011;57198;52.082;5.108;2022-07-25T14:04:15;7.78;;;1.50;;
69912;SDS011;57198;52.082;5.108;2022-07-25T14:06:43;5.90;;;1.30;;
69912;SDS011;57198;52.082;5.108;2022-07-25T14:09:10;10.63;;;1.45;;
69912;SDS011;57198;52.082;5.108;2022-07-25T14:11:37;6.35;;;1.70;;
69912;SDS011;57198;52.082;5.108;2022-07-25T14:14:05;6.07;;;1.45;;
69912;SDS011;57198;52.082;5.108;2022-07-25T14:16:32;8.23;;;1.30;;
69912;SDS011;57198;52.082;5.108;2022-07-25T14:19:00;7.87;;;1.23;;
69912;SDS011;57198;52.082;5.108;2022-07-25T14:21:28;4.22;;;1.00;;
69912;SDS011;57198;52.082;5.108;2022-07-25T14:23:55;5.10;;;0.80;;
69912;SDS011;57198;52.082;5.108;2022-07-25T14:26:22;2.58;;;0.60;;
69912;SDS011;57198;52.082;5.108;2022-07-25T14:28:51;8.93;;;1.00;;
69912;SDS011;57198;52.082;5.108;2022-07-25T14:31:18;3.37;;;1.00;;
69912;SDS011;57198;52.082;5.108;2022-07-25T14:33:46;3.80;;;0.77;;
69912;SDS011;57198;52.082;5.108;2022-07-25T14:36:14;3.03;;;0.70;;
69912;SDS011;57198;52.082;5.108;2022-07-25T14:38:41;2.65;;;0.75;;
69912;SDS011;57198;52.082;5.108;2022-07-25T14:41:09;2.65;;;0.80;;
69912;SDS011;57198;52.082;5.108;2022-07-25T14:43:39;4.00;;;0.80;;
69912;SDS011;57198;52.082;5.108;2022-07-25T14:46:06;3.47;;;0.70;;
69912;SDS011;57198;52.082;5.108;2022-07-25T14:48:34;3.08;;;1.02;;
69912;SDS011;57198;52.082;5.108;2022-07-25T14:51:03;1.10;;;0.90;;
69912;SDS011;57198;52.082;5.108;2022-07-25T14:53:31;4.60;;;0.80;;
69912;SDS011;57198;52.082;5.108;2022-07-25T14:55:58;3.00;;;0.90;;
69912;SDS011;57198;52.082;5.108;2022-07-25T14:58:26;4.38;;;1.15;;